Accueil
METAR-TAF:

METAR-TAF

Aéroports :

Tarawa, Kiribati

Aéroport international de Bonriki

latitude: 01-21N, longitude: 172-55E, altitude: 2 m

Observation

Le bulletin a été fait il y a 56 minutes, à 23:00 UTC
Vent 13 kt de est/sud-est
Température 31°C
Humidité 66%
Pression 1009 hPa
Visibilité 10 km ou plus
Quelques nuages à une hauteur de 2000 ft

METAR: NGTA 202300Z 11013KT 9999 FEW020 31/24 Q1009

Heure: 13:56 (23:56 UTC)

Prévision

Le bulletin a été fait il y a 46 minutes, à 23:10 UTC
Prévision valable du 21 à 00 UTC au 21 à 24 UTC
Vent 12 kt de est
Visibilité 10 km ou plus
Nuages épars à une hauteur de 1800 ft
Nuages fragmentés à une hauteur de 4500 ft
Probabilité 30% :
Temporairement
du 21 à 00 UTC au 21 à 06 UTC
Visibilité: 5000 m
Nuages fragmentés à une hauteur de 1500 ft
averses de pluie

TAF: NGTA 202310Z 2100/2124 09012KT 9999 SCT018 BKN045 PROB30 TEMPO 2100/2106 5000 SHRA BKN015

Observations et prévisions météorologiques de plus de 4000 aéroports (messages METAR et TAF).

Les stations disponibles sont représentées par des disques jaunes et rouges sur la carte.

Passer la souris dessus pour voir le nom de la station.

Cliquer dessus pour voir les observations et prévisions météorologiques.

Pour changer de carte: cliquez sur les boutons verts avec une croix noire pour zoomer, sur le bouton vert avec un tiret pour effectuer un zoom arrière, ou sur les flèches vertes pour les cartes adjacentes.


METAR-TAF: